sensor_id;sensor_type;location;lat;lon;timestamp;P1;durP1;ratioP1;P2;durP2;ratioP2
29172;SDS011;16223;47.966;-1.616;2022-08-04T00:00:13;4.2375;;;2.5875;;
29172;SDS011;16223;47.966;-1.616;2022-08-04T00:01:15;4.625;;;3.0875;;
29172;SDS011;16223;47.966;-1.616;2022-08-04T00:02:15;4.025;;;2.325;;
29172;SDS011;16223;47.966;-1.616;2022-08-04T00:03:15;12.625;;;4.0375;;
29172;SDS011;16223;47.966;-1.616;2022-08-04T00:04:13;6.312499999999999;;;3.8125;;
29172;SDS011;16223;47.966;-1.616;2022-08-04T00:05:16;2.9875;;;2.15;;
29172;SDS011;16223;47.966;-1.616;2022-08-04T00:06:13;10.912500000000001;;;2.8;;
29172;SDS011;16223;47.966;-1.616;2022-08-04T00:07:13;5.8625;;;3.125;;
29172;SDS011;16223;47.966;-1.616;2022-08-04T00:08:15;2.1625;;;1.7249999999999999;;
29172;SDS011;16223;47.966;-1.616;2022-08-04T00:09:16;4.675000000000001;;;3.8499999999999996;;
29172;SDS011;16223;47.966;-1.616;2022-08-04T00:10:13;4.625;;;2.45;;
29172;SDS011;16223;47.966;-1.616;2022-08-04T00:11:13;10.7875;;;3.85;;
29172;SDS011;16223;47.966;-1.616;2022-08-04T00:12:13;12.425;;;3.2125;;
29172;SDS011;16223;47.966;-1.616;2022-08-04T00:13:12;8.0875;;;2.8125;;
29172;SDS011;16223;47.966;-1.616;2022-08-04T00:14:14;6.225;;;3.5625;;
29172;SDS011;16223;47.966;-1.616;2022-08-04T00:15:16;4.025;;;3.0875;;
29172;SDS011;16223;47.966;-1.616;2022-08-04T00:16:13;7.1;;;3.1999999999999997;;
29172;SDS011;16223;47.966;-1.616;2022-08-04T00:17:13;7.1125;;;2.5375;;
29172;SDS011;16223;47.966;-1.616;2022-08-04T00:18:13;5.6;;;3.0;;
29172;SDS011;16223;47.966;-1.616;2022-08-04T00:19:24;3.0875000000000004;;;1.975;;
29172;SDS011;16223;47.966;-1.616;2022-08-04T00:20:14;9.0125;;;2.6375;;
29172;SDS011;16223;47.966;-1.616;2022-08-04T00:21:14;5.6625;;;2.6125;;
29172;SDS011;16223;47.966;-1.616;2022-08-04T00:22:13;5.9375;;;2.7874999999999996;;
29172;SDS011;16223;47.966;-1.616;2022-08-04T00:23:12;8.537500000000001;;;2.575;;
29172;SDS011;16223;47.966;-1.616;2022-08-04T00:24:12;5.2375;;;2.6875;;
29172;SDS011;16223;47.966;-1.616;2022-08-04T00:25:13;4.9624999999999995;;;2.3875;;
29172;SDS011;16223;47.966;-1.616;2022-08-04T00:26:13;3.6875;;;2.9625000000000004;;
29172;SDS011;16223;47.966;-1.616;2022-08-04T00:27:13;2.65;;;2.1375;;
29172;SDS011;16223;47.966;-1.616;2022-08-04T00:28:13;4.6625;;;3.575;;
29172;SDS011;16223;47.966;-1.616;2022-08-04T00:29:12;4.0625;;;3.55;;
29172;SDS011;16223;47.966;-1.616;2022-08-04T00:30:12;5.6875;;;3.375;;
29172;SDS011;16223;47.966;-1.616;2022-08-04T00:31:13;3.4625;;;2.85;;
29172;SDS011;16223;47.966;-1.616;2022-08-04T00:32:13;4.2625;;;2.4749999999999996;;
29172;SDS011;16223;47.966;-1.616;2022-08-04T00:33:14;4.9125;;;2.45;;
29172;SDS011;16223;47.966;-1.616;2022-08-04T00:34:13;4.5875;;;2.9125;;
29172;SDS011;16223;47.966;-1.616;2022-08-04T00:35:13;8.425;;;2.5749999999999997;;
29172;SDS011;16223;47.966;-1.616;2022-08-04T00:36:12;6.35;;;3.1;;
29172;SDS011;16223;47.966;-1.616;2022-08-04T00:37:13;4.0375;;;2.925;;
29172;SDS011;16223;47.966;-1.616;2022-08-04T00:38:13;3.0999999999999996;;;2.075;;
29172;SDS011;16223;47.966;-1.616;2022-08-04T00:39:13;6.75;;;3.3625;;
29172;SDS011;16223;47.966;-1.616;2022-08-04T00:40:18;4.0375;;;2.4625000000000004;;
29172;SDS011;16223;47.966;-1.616;2022-08-04T00:41:15;6.1;;;2.3625;;
29172;SDS011;16223;47.966;-1.616;2022-08-04T00:42:19;2.575;;;1.575;;
29172;SDS011;16223;47.966;-1.616;2022-08-04T00:43:15;5.025;;;2.5625;;
29172;SDS011;16223;47.966;-1.616;2022-08-04T00:44:16;3.9875;;;2.5250000000000004;;
29172;SDS011;16223;47.966;-1.616;2022-08-04T00:45:18;3.9250000000000003;;;1.975;;
29172;SDS011;16223;47.966;-1.616;2022-08-04T00:47:17;4.887499999999999;;;2.3;;
29172;SDS011;16223;47.966;-1.616;2022-08-04T00:48:15;4.025;;;1.2875;;
29172;SDS011;16223;47.966;-1.616;2022-08-04T00:49:18;3.7375;;;2.6;;
29172;SDS011;16223;47.966;-1.616;2022-08-04T00:50:16;8.3125;;;2.625;;
29172;SDS011;16223;47.966;-1.616;2022-08-04T00:51:14;7.9375;;;2.7875;;
29172;SDS011;16223;47.966;-1.616;2022-08-04T00:52:16;4.0875;;;2.6625;;
29172;SDS011;16223;47.966;-1.616;2022-08-04T00:53:13;2.225;;;1.575;;
29172;SDS011;16223;47.966;-1.616;2022-08-04T00:54:16;7.425000000000001;;;2.1125;;
29172;SDS011;16223;47.966;-1.616;2022-08-04T00:55:17;3.15;;;2.25;;
29172;SDS011;16223;47.966;-1.616;2022-08-04T00:57:18;9.35;;;2.8499999999999996;;
29172;SDS011;16223;47.966;-1.616;2022-08-04T00:58:48;4.725;;;4.275;;
29172;SDS011;16223;47.966;-1.616;2022-08-04T00:59:13;2.775;;;2.15;;
29172;SDS011;16223;47.966;-1.616;2022-08-04T01:00:13;3.525;;;2.4875000000000003;;
29172;SDS011;16223;47.966;-1.616;2022-08-04T01:01:16;7.2625;;;3.7125;;
29172;SDS011;16223;47.966;-1.616;2022-08-04T01:02:15;3.575;;;2.2375;;
29172;SDS011;16223;47.966;-1.616;2022-08-04T01:03:13;4.5625;;;2.375;;
29172;SDS011;16223;47.966;-1.616;2022-08-04T01:04:14;2.35;;;1.4125;;
29172;SDS011;16223;47.966;-1.616;2022-08-04T01:05:14;4.725;;;1.9625;;
29172;SDS011;16223;47.966;-1.616;2022-08-04T01:06:15;6.4625;;;2.55;;
29172;SDS011;16223;47.966;-1.616;2022-08-04T01:07:16;5.6;;;2.85;;
29172;SDS011;16223;47.966;-1.616;2022-08-04T01:08:18;3.0374999999999996;;;2.5875000000000004;;
29172;SDS011;16223;47.966;-1.616;2022-08-04T01:09:18;6.1499999999999995;;;3.4;;
29172;SDS011;16223;47.966;-1.616;2022-08-04T01:10:15;5.112500000000001;;;3.05;;
29172;SDS011;16223;47.966;-1.616;2022-08-04T01:11:14;6.1;;;2.775;;
29172;SDS011;16223;47.966;-1.616;2022-08-04T01:12:16;4.125;;;2.8625;;
29172;SDS011;16223;47.966;-1.616;2022-08-04T01:13:19;4.4375;;;3.8875;;
29172;SDS011;16223;47.966;-1.616;2022-08-04T01:14:17;8.2625;;;2.7875;;
29172;SDS011;16223;47.966;-1.616;2022-08-04T01:15:15;9.6875;;;3.625;;
29172;SDS011;16223;47.966;-1.616;2022-08-04T01:16:14;15.462499999999999;;;3.925;;
29172;SDS011;16223;47.966;-1.616;2022-08-04T01:17:16;7.449999999999999;;;2.8;;
29172;SDS011;16223;47.966;-1.616;2022-08-04T01:18:20;3.4000000000000004;;;2.6125;;
29172;SDS011;16223;47.966;-1.616;2022-08-04T01:19:14;15.225000000000001;;;2.925;;
29172;SDS011;16223;47.966;-1.616;2022-08-04T01:20:14;7.5874999999999995;;;2.9125;;
29172;SDS011;16223;47.966;-1.616;2022-08-04T01:21:35;8.9875;;;3.0875;;
29172;SDS011;16223;47.966;-1.616;2022-08-04T01:22:16;7.0875;;;4.4;;
29172;SDS011;16223;47.966;-1.616;2022-08-04T01:23:34;3.9749999999999996;;;3.0125;;
29172;SDS011;16223;47.966;-1.616;2022-08-04T01:24:50;4.45;;;3.3;;
29172;SDS011;16223;47.966;-1.616;2022-08-04T01:26:19;10.25;;;2.8125;;
29172;SDS011;16223;47.966;-1.616;2022-08-04T01:27:25;5.35;;;3.375;;
29172;SDS011;16223;47.966;-1.616;2022-08-04T01:28:27;3.7750000000000004;;;2.4124999999999996;;
29172;SDS011;16223;47.966;-1.616;2022-08-04T01:29:21;23.1625;;;3.7249999999999996;;
29172;SDS011;16223;47.966;-1.616;2022-08-04T01:30:21;8.75;;;3.6624999999999996;;
29172;SDS011;16223;47.966;-1.616;2022-08-04T01:31:25;7.387499999999999;;;3.1999999999999997;;
29172;SDS011;16223;47.966;-1.616;2022-08-04T01:32:23;5.675000000000001;;;3.55;;
29172;SDS011;16223;47.966;-1.616;2022-08-04T01:33:21;7.137499999999999;;;3.4875;;
29172;SDS011;16223;47.966;-1.616;2022-08-04T01:34:22;6.5;;;3.0125;;
29172;SDS011;16223;47.966;-1.616;2022-08-04T01:35:22;4.7125;;;2.7625;;
29172;SDS011;16223;47.966;-1.616;2022-08-04T01:36:21;12.575;;;4.65;;
29172;SDS011;16223;47.966;-1.616;2022-08-04T01:37:23;7.75;;;4.15;;
29172;SDS011;16223;47.966;-1.616;2022-08-04T01:38:23;7.924999999999999;;;4.175000000000001;;
29172;SDS011;16223;47.966;-1.616;2022-08-04T01:39:21;4.550000000000001;;;2.7875;;
29172;SDS011;16223;47.966;-1.616;2022-08-04T01:40:21;6.2625;;;3.4124999999999996;;
29172;SDS011;16223;47.966;-1.616;2022-08-04T01:41:21;8.0625;;;3.7625;;
29172;SDS011;16223;47.966;-1.616;2022-08-04T01:42:21;7.85;;;2.7375;;
29172;SDS011;16223;47.966;-1.616;2022-08-04T01:43:21;15.362499999999999;;;3.575;;
29172;SDS011;16223;47.966;-1.616;2022-08-04T01:44:21;7.9375;;;3.875;;
29172;SDS011;16223;47.966;-1.616;2022-08-04T01:45:22;6.5125;;;3.3;;
29172;SDS011;16223;47.966;-1.616;2022-08-04T01:46:21;7.3375;;;3.025;;
29172;SDS011;16223;47.966;-1.616;2022-08-04T01:47:21;6.6;;;2.6499999999999995;;
29172;SDS011;16223;47.966;-1.616;2022-08-04T01:48:22;6.5875;;;3.0125;;
29172;SDS011;16223;47.966;-1.616;2022-08-04T01:49:21;6.2125;;;5.6000000000000005;;
29172;SDS011;16223;47.966;-1.616;2022-08-04T01:50:22;5.275;;;4.675;;
29172;SDS011;16223;47.966;-1.616;2022-08-04T01:51:21;6.5125;;;3.05;;
29172;SDS011;16223;47.966;-1.616;2022-08-04T01:52:21;5.25;;;2.1875;;
29172;SDS011;16223;47.966;-1.616;2022-08-04T01:53:21;5.35;;;2.825;;
29172;SDS011;16223;47.966;-1.616;2022-08-04T01:54:21;6.3125;;;2.4749999999999996;;
29172;SDS011;16223;47.966;-1.616;2022-08-04T01:55:21;3.4875;;;1.5125000000000002;;
29172;SDS011;16223;47.966;-1.616;2022-08-04T01:56:21;3.675;;;2.375;;
29172;SDS011;16223;47.966;-1.616;2022-08-04T01:57:21;2.4625000000000004;;;1.6875;;
29172;SDS011;16223;47.966;-1.616;2022-08-04T01:58:22;2.525;;;1.4875;;
29172;SDS011;16223;47.966;-1.616;2022-08-04T01:59:21;4.5125;;;2.3000000000000003;;
29172;SDS011;16223;47.966;-1.616;2022-08-04T02:00:22;3.8500000000000005;;;1.75;;
29172;SDS011;16223;47.966;-1.616;2022-08-04T02:01:21;3.4;;;1.8375;;
29172;SDS011;16223;47.966;-1.616;2022-08-04T02:02:21;4.475;;;2.625;;
29172;SDS011;16223;47.966;-1.616;2022-08-04T02:03:21;3.1375;;;1.9875;;
29172;SDS011;16223;47.966;-1.616;2022-08-04T02:04:21;2.175;;;1.15;;
29172;SDS011;16223;47.966;-1.616;2022-08-04T02:05:22;1.1875;;;0.8;;
29172;SDS011;16223;47.966;-1.616;2022-08-04T02:06:23;1.65;;;0.8624999999999999;;
29172;SDS011;16223;47.966;-1.616;2022-08-04T02:08:03;1.475;;;1.1124999999999998;;
29172;SDS011;16223;47.966;-1.616;2022-08-04T02:09:22;1.1375;;;0.825;;
29172;SDS011;16223;47.966;-1.616;2022-08-04T02:10:26;1.1125;;;0.8;;
29172;SDS011;16223;47.966;-1.616;2022-08-04T02:11:21;1.5375;;;0.8875;;
29172;SDS011;16223;47.966;-1.616;2022-08-04T02:12:24;2.075;;;1.375;;
29172;SDS011;16223;47.966;-1.616;2022-08-04T02:13:23;2.5125;;;1.0;;
29172;SDS011;16223;47.966;-1.616;2022-08-04T02:14:22;0.8374999999999999;;;0.65;;
29172;SDS011;16223;47.966;-1.616;2022-08-04T02:15:25;2.6625;;;2.25;;
29172;SDS011;16223;47.966;-1.616;2022-08-04T02:16:25;0.9;;;0.6749999999999999;;
29172;SDS011;16223;47.966;-1.616;2022-08-04T02:17:22;1.7;;;1.5125000000000002;;
29172;SDS011;16223;47.966;-1.616;2022-08-04T02:18:22;2.275;;;1.8250000000000002;;
29172;SDS011;16223;47.966;-1.616;2022-08-04T02:19:23;1.6;;;1.0250000000000001;;
29172;SDS011;16223;47.966;-1.616;2022-08-04T02:20:22;1.2000000000000002;;;0.875;;
29172;SDS011;16223;47.966;-1.616;2022-08-04T02:21:22;1.1875;;;0.75;;
29172;SDS011;16223;47.966;-1.616;2022-08-04T02:22:21;1.625;;;1.05;;
29172;SDS011;16223;47.966;-1.616;2022-08-04T02:23:30;1.5625;;;1.125;;
29172;SDS011;16223;47.966;-1.616;2022-08-04T02:24:21;0.8624999999999999;;;0.7000000000000001;;
29172;SDS011;16223;47.966;-1.616;2022-08-04T02:25:23;1.875;;;1.4249999999999998;;
29172;SDS011;16223;47.966;-1.616;2022-08-04T02:26:21;1.6125;;;0.6625;;
29172;SDS011;16223;47.966;-1.616;2022-08-04T02:27:24;1.075;;;0.7625;;
29172;SDS011;16223;47.966;-1.616;2022-08-04T02:28:23;1.9625;;;1.3375;;
29172;SDS011;16223;47.966;-1.616;2022-08-04T02:29:24;3.2750000000000004;;;2.1625;;
29172;SDS011;16223;47.966;-1.616;2022-08-04T02:30:22;1.0125;;;0.525;;
29172;SDS011;16223;47.966;-1.616;2022-08-04T02:31:23;1.025;;;0.8;;
29172;SDS011;16223;47.966;-1.616;2022-08-04T02:32:24;2.4875;;;0.9375;;
29172;SDS011;16223;47.966;-1.616;2022-08-04T02:33:23;2.125;;;0.7625;;
29172;SDS011;16223;47.966;-1.616;2022-08-04T02:34:23;1.775;;;0.48750000000000004;;
29172;SDS011;16223;47.966;-1.616;2022-08-04T02:35:22;1.9500000000000002;;;0.725;;
29172;SDS011;16223;47.966;-1.616;2022-08-04T02:36:23;1.1875;;;0.6375;;
29172;SDS011;16223;47.966;-1.616;2022-08-04T02:37:21;1.5999999999999999;;;0.85;;
29172;SDS011;16223;47.966;-1.616;2022-08-04T02:38:23;2.275;;;1.075;;
29172;SDS011;16223;47.966;-1.616;2022-08-04T02:39:22;1.7875;;;0.7625;;
29172;SDS011;16223;47.966;-1.616;2022-08-04T02:40:21;1.6749999999999998;;;0.775;;
29172;SDS011;16223;47.966;-1.616;2022-08-04T02:41:22;3.2750000000000004;;;0.9;;
29172;SDS011;16223;47.966;-1.616;2022-08-04T02:42:21;5.324999999999999;;;1.3125;;
29172;SDS011;16223;47.966;-1.616;2022-08-04T02:43:21;0.9500000000000001;;;0.8625;;
29172;SDS011;16223;47.966;-1.616;2022-08-04T02:44:22;2.55;;;0.75;;
29172;SDS011;16223;47.966;-1.616;2022-08-04T02:45:21;4.4875;;;0.6;;
29172;SDS011;16223;47.966;-1.616;2022-08-04T02:46:21;1.9375000000000002;;;1.025;;
29172;SDS011;16223;47.966;-1.616;2022-08-04T02:47:21;2.7499999999999996;;;1.0875;;
29172;SDS011;16223;47.966;-1.616;2022-08-04T02:48:22;0.9375000000000001;;;0.6499999999999999;;
29172;SDS011;16223;47.966;-1.616;2022-08-04T02:49:21;0.85;;;0.7625;;
29172;SDS011;16223;47.966;-1.616;2022-08-04T02:50:21;1.2625;;;0.7875;;
29172;SDS011;16223;47.966;-1.616;2022-08-04T02:51:22;1.4875;;;0.925;;
29172;SDS011;16223;47.966;-1.616;2022-08-04T02:52:21;0.35000000000000003;;;0.35000000000000003;;
29172;SDS011;16223;47.966;-1.616;2022-08-04T02:53:21;2.0749999999999997;;;1.025;;
29172;SDS011;16223;47.966;-1.616;2022-08-04T02:54:22;1.9125;;;1.725;;
29172;SDS011;16223;47.966;-1.616;2022-08-04T02:55:21;1.7375;;;1.2;;
29172;SDS011;16223;47.966;-1.616;2022-08-04T02:56:22;1.4625;;;1.3625;;
29172;SDS011;16223;47.966;-1.616;2022-08-04T02:57:22;1.1;;;0.975;;
29172;SDS011;16223;47.966;-1.616;2022-08-04T02:58:21;2.25;;;1.0;;
29172;SDS011;16223;47.966;-1.616;2022-08-04T02:59:24;1.0;;;0.8875;;
29172;SDS011;16223;47.966;-1.616;2022-08-04T03:00:21;2.3499999999999996;;;1.2375;;
29172;SDS011;16223;47.966;-1.616;2022-08-04T03:01:21;1.325;;;0.95;;
29172;SDS011;16223;47.966;-1.616;2022-08-04T03:02:26;1.0875;;;0.55;;
29172;SDS011;16223;47.966;-1.616;2022-08-04T03:03:23;2.2625;;;1.4375;;
29172;SDS011;16223;47.966;-1.616;2022-08-04T03:04:25;1.15;;;0.8625;;
29172;SDS011;16223;47.966;-1.616;2022-08-04T03:05:23;4.2375;;;1.2;;
29172;SDS011;16223;47.966;-1.616;2022-08-04T03:06:30;2.95;;;2.1375;;
29172;SDS011;16223;47.966;-1.616;2022-08-04T03:08:27;3.0625;;;1.2625;;
29172;SDS011;16223;47.966;-1.616;2022-08-04T03:09:30;1.6375;;;0.5875;;
29172;SDS011;16223;47.966;-1.616;2022-08-04T03:11:27;1.2125;;;0.7625000000000001;;
29172;SDS011;16223;47.966;-1.616;2022-08-04T03:12:29;1.05;;;0.925;;
29172;SDS011;16223;47.966;-1.616;2022-08-04T03:13:27;2.6;;;1.775;;
29172;SDS011;16223;47.966;-1.616;2022-08-04T03:14:27;6.050000000000001;;;1.05;;
29172;SDS011;16223;47.966;-1.616;2022-08-04T03:15:31;1.7375;;;1.25;;
29172;SDS011;16223;47.966;-1.616;2022-08-04T03:16:59;2.15;;;1.2625;;
29172;SDS011;16223;47.966;-1.616;2022-08-04T03:18:29;1.575;;;1.2125;;
29172;SDS011;16223;47.966;-1.616;2022-08-04T03:19:43;1.7125;;;1.1749999999999998;;
29172;SDS011;16223;47.966;-1.616;2022-08-04T03:20:27;1.75;;;0.7375;;
29172;SDS011;16223;47.966;-1.616;2022-08-04T03:21:29;2.5374999999999996;;;0.925;;
29172;SDS011;16223;47.966;-1.616;2022-08-04T03:22:49;1.8250000000000002;;;1.475;;
29172;SDS011;16223;47.966;-1.616;2022-08-04T03:23:30;2.425;;;1.55;;
29172;SDS011;16223;47.966;-1.616;2022-08-04T03:24:27;3.0875;;;1.5875;;
29172;SDS011;16223;47.966;-1.616;2022-08-04T03:27:10;4.2;;;2.6;;
29172;SDS011;16223;47.966;-1.616;2022-08-04T03:28:17;4.3125;;;2.9125000000000005;;
29172;SDS011;16223;47.966;-1.616;2022-08-04T03:29:21;2.875;;;1.775;;
29172;SDS011;16223;47.966;-1.616;2022-08-04T03:31:16;5.425;;;2.5374999999999996;;
29172;SDS011;16223;47.966;-1.616;2022-08-04T03:32:16;5.4;;;2.7125000000000004;;
29172;SDS011;16223;47.966;-1.616;2022-08-04T03:33:14;6.9375;;;2.7;;
29172;SDS011;16223;47.966;-1.616;2022-08-04T03:34:14;6.6;;;3.075;;
29172;SDS011;16223;47.966;-1.616;2022-08-04T03:35:15;8.45;;;3.2125;;
29172;SDS011;16223;47.966;-1.616;2022-08-04T03:36:15;4.6;;;2.0875;;
29172;SDS011;16223;47.966;-1.616;2022-08-04T03:38:24;6.125;;;3.175;;
29172;SDS011;16223;47.966;-1.616;2022-08-04T03:41:48;9.925;;;3.85;;
29172;SDS011;16223;47.966;-1.616;2022-08-04T03:42:55;10.475;;;4.9;;
29172;SDS011;16223;47.966;-1.616;2022-08-04T03:43:55;9.55;;;4.7875;;
29172;SDS011;16223;47.966;-1.616;2022-08-04T03:44:54;5.7625;;;2.8499999999999996;;
29172;SDS011;16223;47.966;-1.616;2022-08-04T03:46:07;8.2375;;;5.175000000000001;;
29172;SDS011;16223;47.966;-1.616;2022-08-04T03:46:59;8.4375;;;5.262499999999999;;
29172;SDS011;16223;47.966;-1.616;2022-08-04T03:47:57;8.425;;;4.2;;
29172;SDS011;16223;47.966;-1.616;2022-08-04T03:48:52;21.325000000000003;;;7.3125;;
29172;SDS011;16223;47.966;-1.616;2022-08-04T03:50:54;11.2;;;7.3625;;
29172;SDS011;16223;47.966;-1.616;2022-08-04T03:51:48;9.825000000000001;;;5.4375;;
29172;SDS011;16223;47.966;-1.616;2022-08-04T03:53:02;15.387500000000001;;;4.9875;;
29172;SDS011;16223;47.966;-1.616;2022-08-04T03:53:50;9.012500000000001;;;3.8874999999999997;;
29172;SDS011;16223;47.966;-1.616;2022-08-04T03:55:22;9.7875;;;4.300000000000001;;
29172;SDS011;16223;47.966;-1.616;2022-08-04T03:56:53;13.6125;;;7.1125;;
29172;SDS011;16223;47.966;-1.616;2022-08-04T03:57:51;12.600000000000001;;;4.7125;;
29172;SDS011;16223;47.966;-1.616;2022-08-04T03:58:51;12.975;;;4.975;;
29172;SDS011;16223;47.966;-1.616;2022-08-04T03:59:48;8.65;;;4.0125;;
29172;SDS011;16223;47.966;-1.616;2022-08-04T04:00:46;12.25;;;5.9125;;
29172;SDS011;16223;47.966;-1.616;2022-08-04T04:01:52;18.762500000000003;;;5.3375;;
29172;SDS011;16223;47.966;-1.616;2022-08-04T04:02:58;12.7;;;4.987500000000001;;
29172;SDS011;16223;47.966;-1.616;2022-08-04T04:03:49;10.149999999999999;;;5.1;;
29172;SDS011;16223;47.966;-1.616;2022-08-04T04:04:50;7.525;;;4.6625;;
29172;SDS011;16223;47.966;-1.616;2022-08-04T04:05:54;13.462500000000002;;;6.1;;
29172;SDS011;16223;47.966;-1.616;2022-08-04T04:06:49;12.4875;;;5.975;;
29172;SDS011;16223;47.966;-1.616;2022-08-04T04:07:58;14.399999999999999;;;5.5375;;
29172;SDS011;16223;47.966;-1.616;2022-08-04T04:09:02;10.912500000000001;;;5.0375;;
29172;SDS011;16223;47.966;-1.616;2022-08-04T04:09:52;14.225;;;4.775;;
29172;SDS011;16223;47.966;-1.616;2022-08-04T04:10:53;8.9;;;4.175;;
29172;SDS011;16223;47.966;-1.616;2022-08-04T04:12:21;21.725;;;6.925000000000001;;
29172;SDS011;16223;47.966;-1.616;2022-08-04T04:13:49;6.375;;;3.8125;;
29172;SDS011;16223;47.966;-1.616;2022-08-04T04:14:48;12.6375;;;6.5875;;
29172;SDS011;16223;47.966;-1.616;2022-08-04T04:16:21;12.2625;;;4.8;;
29172;SDS011;16223;47.966;-1.616;2022-08-04T04:16:48;11.6625;;;6.15;;
29172;SDS011;16223;47.966;-1.616;2022-08-04T04:17:51;11.7875;;;6.275;;
29172;SDS011;16223;47.966;-1.616;2022-08-04T04:18:51;12.075;;;5.699999999999999;;
29172;SDS011;16223;47.966;-1.616;2022-08-04T04:19:52;9.475;;;5.175;;
29172;SDS011;16223;47.966;-1.616;2022-08-04T04:21:08;12.55;;;5.925000000000001;;
29172;SDS011;16223;47.966;-1.616;2022-08-04T04:21:51;11.175;;;6.625;;
29172;SDS011;16223;47.966;-1.616;2022-08-04T04:22:53;12.675;;;6.7125;;
29172;SDS011;16223;47.966;-1.616;2022-08-04T04:23:51;13.7125;;;5.2375;;
29172;SDS011;16223;47.966;-1.616;2022-08-04T04:24:48;11.775;;;5.65;;
29172;SDS011;16223;47.966;-1.616;2022-08-04T04:25:48;9.775;;;5.1875;;
29172;SDS011;16223;47.966;-1.616;2022-08-04T04:26:50;10.875;;;5.3;;
29172;SDS011;16223;47.966;-1.616;2022-08-04T04:27:50;8.375;;;5.175000000000001;;
29172;SDS011;16223;47.966;-1.616;2022-08-04T04:28:54;14.350000000000001;;;6.35;;
29172;SDS011;16223;47.966;-1.616;2022-08-04T04:29:50;9.3;;;5.15;;
29172;SDS011;16223;47.966;-1.616;2022-08-04T04:30:46;15.750000000000002;;;6.5;;
29172;SDS011;16223;47.966;-1.616;2022-08-04T04:31:49;12.474999999999998;;;5.6875;;
29172;SDS011;16223;47.966;-1.616;2022-08-04T04:32:51;7.15;;;3.675;;
29172;SDS011;16223;47.966;-1.616;2022-08-04T04:33:48;8.0875;;;4.575;;
29172;SDS011;16223;47.966;-1.616;2022-08-04T04:34:48;9.212499999999999;;;4.8125;;
29172;SDS011;16223;47.966;-1.616;2022-08-04T04:35:48;7.574999999999999;;;5.25;;
29172;SDS011;16223;47.966;-1.616;2022-08-04T04:36:48;11.375;;;5.6875;;
29172;SDS011;16223;47.966;-1.616;2022-08-04T04:37:53;12.225;;;4.95;;
29172;SDS011;16223;47.966;-1.616;2022-08-04T04:38:57;7.975;;;5.0;;
29172;SDS011;16223;47.966;-1.616;2022-08-04T04:39:50;12.7875;;;5.125;;
29172;SDS011;16223;47.966;-1.616;2022-08-04T04:40:47;20.974999999999998;;;6.875;;
29172;SDS011;16223;47.966;-1.616;2022-08-04T04:41:50;10.4375;;;5.987500000000001;;
29172;SDS011;16223;47.966;-1.616;2022-08-04T04:42:51;12.362499999999999;;;5.725;;
29172;SDS011;16223;47.966;-1.616;2022-08-04T04:43:56;11.975;;;5.7124999999999995;;
29172;SDS011;16223;47.966;-1.616;2022-08-04T04:46:37;6.800000000000001;;;5.175;;
29172;SDS011;16223;47.966;-1.616;2022-08-04T04:47:41;8.5875;;;5.375;;
29172;SDS011;16223;47.966;-1.616;2022-08-04T04:48:40;13.3625;;;3.8374999999999995;;
29172;SDS011;16223;47.966;-1.616;2022-08-04T04:49:39;11.5625;;;6.0874999999999995;;
29172;SDS011;16223;47.966;-1.616;2022-08-04T04:50:42;9.2375;;;6.0;;
29172;SDS011;16223;47.966;-1.616;2022-08-04T04:51:37;12.524999999999999;;;4.75;;
29172;SDS011;16223;47.966;-1.616;2022-08-04T04:52:37;8.5125;;;4.1125;;
29172;SDS011;16223;47.966;-1.616;2022-08-04T04:53:41;12.375;;;5.1375;;
29172;SDS011;16223;47.966;-1.616;2022-08-04T04:54:37;8.762500000000001;;;4.7375;;
29172;SDS011;16223;47.966;-1.616;2022-08-04T04:55:39;15.625;;;5.262500000000001;;
29172;SDS011;16223;47.966;-1.616;2022-08-04T04:56:38;10.9375;;;5.3375;;
29172;SDS011;16223;47.966;-1.616;2022-08-04T04:57:36;13.212499999999999;;;5.3;;
29172;SDS011;16223;47.966;-1.616;2022-08-04T04:58:36;7.6125;;;5.025;;
29172;SDS011;16223;47.966;-1.616;2022-08-04T04:59:38;16.65;;;6.8125;;
29172;SDS011;16223;47.966;-1.616;2022-08-04T05:00:39;9.4625;;;5.199999999999999;;
29172;SDS011;16223;47.966;-1.616;2022-08-04T05:01:40;11.525;;;4.1;;
29172;SDS011;16223;47.966;-1.616;2022-08-04T05:02:42;17.5;;;5.7;;
29172;SDS011;16223;47.966;-1.616;2022-08-04T05:03:40;7.6625;;;4.1875;;
29172;SDS011;16223;47.966;-1.616;2022-08-04T05:04:49;9.9125;;;5.025;;
29172;SDS011;16223;47.966;-1.616;2022-08-04T05:05:38;8.287500000000001;;;4.887499999999999;;
29172;SDS011;16223;47.966;-1.616;2022-08-04T05:06:41;10.212499999999999;;;6.7375;;
29172;SDS011;16223;47.966;-1.616;2022-08-04T05:07:44;16.7625;;;5.2125;;
29172;SDS011;16223;47.966;-1.616;2022-08-04T05:08:43;11.7;;;5.7;;
29172;SDS011;16223;47.966;-1.616;2022-08-04T05:09:42;12.6;;;7.1625;;
29172;SDS011;16223;47.966;-1.616;2022-08-04T05:10:39;12.037500000000001;;;5.6;;
29172;SDS011;16223;47.966;-1.616;2022-08-04T05:11:45;9.412500000000001;;;5.4125;;
29172;SDS011;16223;47.966;-1.616;2022-08-04T05:12:50;15.837499999999999;;;5.975;;
29172;SDS011;16223;47.966;-1.616;2022-08-04T05:13:37;14.075;;;8.55;;
29172;SDS011;16223;47.966;-1.616;2022-08-04T05:14:38;10.375;;;6.85;;
29172;SDS011;16223;47.966;-1.616;2022-08-04T05:15:38;20.025000000000002;;;6.675;;
29172;SDS011;16223;47.966;-1.616;2022-08-04T05:16:38;24.275;;;7.2124999999999995;;
29172;SDS011;16223;47.966;-1.616;2022-08-04T05:17:37;9.975000000000001;;;5.2375;;
29172;SDS011;16223;47.966;-1.616;2022-08-04T05:18:37;24.0875;;;6.55;;
29172;SDS011;16223;47.966;-1.616;2022-08-04T05:19:39;10.912500000000001;;;6.6499999999999995;;
29172;SDS011;16223;47.966;-1.616;2022-08-04T05:20:37;14.9;;;6.825;;
29172;SDS011;16223;47.966;-1.616;2022-08-04T05:21:38;9.850000000000001;;;5.8875;;
29172;SDS011;16223;47.966;-1.616;2022-08-04T05:22:38;7.637499999999999;;;4.925;;
29172;SDS011;16223;47.966;-1.616;2022-08-04T05:23:36;6.4125;;;3.9375;;
29172;SDS011;16223;47.966;-1.616;2022-08-04T05:24:38;11.4875;;;5.675;;
29172;SDS011;16223;47.966;-1.616;2022-08-04T05:25:38;13.275;;;5.6875;;
29172;SDS011;16223;47.966;-1.616;2022-08-04T05:26:38;14.850000000000001;;;7.2875000000000005;;
29172;SDS011;16223;47.966;-1.616;2022-08-04T05:27:40;10.899999999999999;;;5.699999999999999;;
29172;SDS011;16223;47.966;-1.616;2022-08-04T05:28:37;11.475;;;5.387499999999999;;
29172;SDS011;16223;47.966;-1.616;2022-08-04T05:29:37;14.675;;;4.225;;
29172;SDS011;16223;47.966;-1.616;2022-08-04T05:30:37;12.75;;;5.075;;
29172;SDS011;16223;47.966;-1.616;2022-08-04T05:31:38;9.45;;;5.4125;;
29172;SDS011;16223;47.966;-1.616;2022-08-04T05:32:37;7.625;;;5.7375;;
29172;SDS011;16223;47.966;-1.616;2022-08-04T05:33:37;11.325;;;6.762499999999999;;
29172;SDS011;16223;47.966;-1.616;2022-08-04T05:34:38;20.0125;;;5.15;;
29172;SDS011;16223;47.966;-1.616;2022-08-04T05:35:40;6.1375;;;4.612500000000001;;